Time;durP1;ratioP1;P1;durP2;ratioP2;P2;SDS_P1;SDS_P2;PMS_P1;PMS_P2;Temp;Humidity;BMP_temperature;BMP_pressure;BME280_temperature;BME280_humidity;BME280_pressure;Samples;Min_cycle;Max_cycle;Signal;HPM_P1;HPM_P2
2021/10/21 00:00:36;;;;;;;51.37;26.20;;;4.10;99.90;;;;;;4174014;28;20747;-62
2021/10/21 00:02:38;;;;;;;53.00;26.60;;;4.10;99.90;;;;;;4172389;28;20347;-63
2021/10/21 00:04:40;;;;;;;53.30;27.33;;;4.10;99.90;;;;;;4187372;28;20326;-62
2021/10/21 00:06:41;;;;;;;46.20;25.07;;;4.10;99.90;;;;;;4191929;28;20261;-63
2021/10/21 00:08:43;;;;;;;48.87;24.37;;;4.10;99.90;;;;;;4192873;28;20273;-62
2021/10/21 00:10:46;;;;;;;49.73;27.13;;;4.00;99.90;;;;;;4193286;28;20330;-62
2021/10/21 00:12:48;;;;;;;50.53;27.03;;;3.90;99.90;;;;;;4174422;28;20258;-62
2021/10/21 00:14:49;;;;;;;44.90;24.23;;;3.80;99.90;;;;;;4178524;28;20270;-65
2021/10/21 00:16:50;;;;;;;54.70;27.87;;;3.80;99.90;;;;;;4175891;28;20675;-62
2021/10/21 00:18:51;;;;;;;55.73;26.57;;;3.70;99.90;;;;;;4177164;28;20274;-61
2021/10/21 00:20:53;;;;;;;49.13;26.87;;;3.70;99.90;;;;;;4175232;28;20693;-61
2021/10/21 00:22:54;;;;;;;55.43;27.77;;;3.60;99.90;;;;;;4176727;28;20298;-63
2021/10/21 00:24:55;;;;;;;63.67;28.37;;;3.70;99.90;;;;;;4175386;28;20262;-62
2021/10/21 00:26:56;;;;;;;60.77;29.37;;;3.60;99.90;;;;;;4177195;28;20749;-62
2021/10/21 00:28:57;;;;;;;53.83;28.83;;;3.50;99.90;;;;;;4172823;28;20335;-63
2021/10/21 00:30:58;;;;;;;63.73;28.87;;;3.60;99.90;;;;;;4175593;28;20312;-62
2021/10/21 00:32:59;;;;;;;57.13;29.27;;;3.50;99.90;;;;;;4175652;28;20246;-61
2021/10/21 00:35:01;;;;;;;53.77;28.37;;;3.60;99.90;;;;;;4176927;28;20258;-64
2021/10/21 00:37:02;;;;;;;50.80;27.10;;;3.60;99.90;;;;;;4176116;28;20266;-62
2021/10/21 00:39:03;;;;;;;54.33;28.53;;;3.60;99.90;;;;;;4175351;28;20657;-63
2021/10/21 00:41:05;;;;;;;55.63;27.10;;;3.60;99.90;;;;;;4175869;28;20312;-62
2021/10/21 00:43:06;;;;;;;55.40;27.30;;;3.60;99.90;;;;;;4174357;28;20306;-62
2021/10/21 00:45:08;;;;;;;55.37;27.30;;;3.60;99.90;;;;;;4175841;28;20262;-62
2021/10/21 00:47:09;;;;;;;52.30;26.33;;;3.60;99.90;;;;;;4174241;28;20319;-63
2021/10/21 00:49:10;;;;;;;54.33;25.83;;;3.60;99.90;;;;;;4176278;28;20759;-64
2021/10/21 00:51:15;;;;;;;56.13;26.93;;;3.50;99.90;;;;;;4174351;28;20270;-62
2021/10/21 00:53:17;;;;;;;48.23;26.17;;;3.50;99.90;;;;;;4176528;28;20723;-62
2021/10/21 00:55:20;;;;;;;52.33;26.67;;;3.50;99.90;;;;;;4175197;28;20784;-60
2021/10/21 00:57:21;;;;;;;47.43;25.10;;;3.50;99.90;;;;;;4175552;28;20296;-62
2021/10/21 00:59:23;;;;;;;46.40;26.20;;;3.40;99.90;;;;;;4175251;28;20270;-62
2021/10/21 01:01:28;;;;;;;50.37;25.83;;;3.40;99.90;;;;;;4176268;28;20266;-62
2021/10/21 01:03:29;;;;;;;47.67;24.67;;;3.40;99.90;;;;;;4174493;28;20286;-61
2021/10/21 01:05:30;;;;;;;44.53;24.43;;;3.30;99.90;;;;;;4174794;28;20355;-61
2021/10/21 01:07:32;;;;;;;46.10;24.67;;;3.30;99.90;;;;;;4175146;28;20900;-64
2021/10/21 01:09:35;;;;;;;48.67;25.57;;;3.30;99.90;;;;;;4175889;28;20285;-62
2021/10/21 01:11:39;;;;;;;50.43;24.70;;;3.30;99.90;;;;;;4175477;28;21152;-61
2021/10/21 01:13:40;;;;;;;48.63;24.97;;;3.30;99.90;;;;;;4175531;28;20331;-62
2021/10/21 01:15:41;;;;;;;45.17;22.77;;;3.30;99.90;;;;;;4175351;28;20286;-61
2021/10/21 01:17:42;;;;;;;40.03;21.93;;;3.30;99.90;;;;;;4175083;28;20321;-62
2021/10/21 01:19:44;;;;;;;42.27;22.40;;;3.30;99.90;;;;;;4175412;28;20808;-62
2021/10/21 01:21:46;;;;;;;43.83;21.13;;;3.20;99.90;;;;;;4172997;28;20281;-61
2021/10/21 01:23:47;;;;;;;42.27;21.33;;;3.20;99.90;;;;;;4176082;28;21280;-61
2021/10/21 01:25:48;;;;;;;34.67;20.33;;;3.20;99.90;;;;;;4174208;28;20670;-62
2021/10/21 01:27:50;;;;;;;40.40;22.80;;;3.20;99.90;;;;;;4176094;28;20266;-62
2021/10/21 01:29:51;;;;;;;43.17;22.50;;;3.20;99.90;;;;;;4173850;28;20288;-62
2021/10/21 01:31:55;;;;;;;42.63;21.60;;;3.20;99.90;;;;;;4175726;28;20274;-62
2021/10/21 01:33:56;;;;;;;37.60;21.23;;;3.20;99.90;;;;;;4174437;28;20258;-62
2021/10/21 01:35:57;;;;;;;38.90;20.67;;;3.10;99.90;;;;;;4175603;28;20316;-62
2021/10/21 01:37:58;;;;;;;35.20;20.57;;;3.10;99.90;;;;;;4174525;28;20270;-62
2021/10/21 01:40:00;;;;;;;40.93;21.77;;;3.10;99.90;;;;;;4175145;28;20332;-62
2021/10/21 01:42:01;;;;;;;37.00;20.40;;;3.00;99.90;;;;;;4173973;28;20297;-62
2021/10/21 01:44:03;;;;;;;35.53;18.83;;;3.00;99.90;;;;;;4174836;28;20281;-61
2021/10/21 01:46:04;;;;;;;33.80;18.67;;;2.90;99.90;;;;;;4174166;28;20265;-61
2021/10/21 01:48:06;;;;;;;31.37;18.83;;;2.90;99.90;;;;;;4174149;28;20274;-61
2021/10/21 01:50:07;;;;;;;34.10;19.03;;;2.90;99.90;;;;;;4175125;28;20258;-62
2021/10/21 01:52:08;;;;;;;32.73;19.73;;;2.80;99.90;;;;;;4174394;28;20320;-62
2021/10/21 01:54:09;;;;;;;33.57;19.73;;;2.80;99.90;;;;;;4175317;28;20668;-61
2021/10/21 01:56:11;;;;;;;34.20;19.50;;;2.80;99.90;;;;;;4173923;28;20266;-61
2021/10/21 01:58:12;;;;;;;36.30;19.17;;;2.70;99.90;;;;;;4175620;28;20258;-61
2021/10/21 02:00:16;;;;;;;33.43;18.57;;;2.70;99.90;;;;;;4173168;28;20266;-61
2021/10/21 02:02:17;;;;;;;32.07;18.17;;;2.80;99.90;;;;;;4158688;28;20286;-62
2021/10/21 02:04:19;;;;;;;34.63;19.87;;;2.70;99.90;;;;;;4156989;28;20690;-62
2021/10/21 02:06:20;;;;;;;37.00;19.73;;;2.60;99.90;;;;;;4158783;28;20332;-62
2021/10/21 02:08:21;;;;;;;37.63;19.53;;;2.50;99.90;;;;;;4157519;28;20293;-62
2021/10/21 02:10:22;;;;;;;41.87;21.63;;;2.50;99.90;;;;;;4158966;28;20266;-59
2021/10/21 02:12:23;;;;;;;39.67;21.67;;;2.50;99.90;;;;;;4157051;28;20267;-63
2021/10/21 02:14:24;;;;;;;41.13;21.53;;;2.50;99.90;;;;;;4157538;28;20340;-63
2021/10/21 02:16:25;;;;;;;36.63;19.80;;;2.40;99.90;;;;;;4169241;28;20282;-62
2021/10/21 02:18:28;;;;;;;34.53;19.03;;;2.40;99.90;;;;;;4173606;28;20396;-62
2021/10/21 02:20:29;;;;;;;34.30;19.87;;;2.40;99.90;;;;;;4173835;28;20285;-62
2021/10/21 02:22:30;;;;;;;44.60;20.33;;;2.30;99.90;;;;;;4173436;28;20317;-62
2021/10/21 02:24:31;;;;;;;53.33;18.63;;;2.20;99.90;;;;;;4174146;28;20266;-63
2021/10/21 02:26:32;;;;;;;34.20;17.53;;;2.10;99.90;;;;;;4172764;28;20266;-61
2021/10/21 02:28:33;;;;;;;29.90;17.87;;;2.00;99.90;;;;;;4175145;28;20254;-61
2021/10/21 02:30:35;;;;;;;30.60;18.30;;;2.00;99.90;;;;;;4173543;28;20292;-61
2021/10/21 02:32:36;;;;;;;31.20;19.03;;;2.00;99.90;;;;;;4174444;28;20327;-62
2021/10/21 02:34:37;;;;;;;33.53;19.43;;;2.00;99.90;;;;;;4173059;28;20337;-62
2021/10/21 02:36:38;;;;;;;32.60;18.53;;;2.00;99.90;;;;;;4173940;28;20262;-61
2021/10/21 02:38:40;;;;;;;30.97;17.93;;;2.00;99.90;;;;;;4174004;28;20300;-61
2021/10/21 02:40:41;;;;;;;32.73;18.27;;;2.00;99.90;;;;;;4174720;28;20258;-60
2021/10/21 02:42:42;;;;;;;27.30;17.53;;;1.90;99.90;;;;;;4173443;28;20774;-61
2021/10/21 02:44:43;;;;;;;33.20;18.93;;;2.00;99.90;;;;;;4174272;28;20274;-62
2021/10/21 02:46:44;;;;;;;33.67;18.60;;;1.90;99.90;;;;;;4172604;28;20250;-61
2021/10/21 02:48:45;;;;;;;34.27;18.43;;;1.90;99.90;;;;;;4174065;28;20266;-61
2021/10/21 02:50:46;;;;;;;33.90;18.60;;;1.80;99.90;;;;;;4173408;28;20672;-61
2021/10/21 02:52:48;;;;;;;31.63;19.17;;;1.80;99.90;;;;;;4172723;28;20297;-61
2021/10/21 02:54:49;;;;;;;35.87;18.53;;;1.80;99.90;;;;;;4173902;28;20963;-60
2021/10/21 02:56:50;;;;;;;33.40;19.40;;;1.80;99.90;;;;;;4173177;28;20277;-61
2021/10/21 02:58:51;;;;;;;35.43;20.00;;;1.90;99.90;;;;;;4175095;28;20738;-61
2021/10/21 03:00:52;;;;;;;35.77;19.13;;;1.80;99.90;;;;;;4173084;28;20278;-61
2021/10/21 03:02:53;;;;;;;36.87;19.27;;;1.70;99.90;;;;;;4173540;28;20627;-61
2021/10/21 03:04:54;;;;;;;38.97;20.20;;;1.70;99.90;;;;;;4172587;28;20281;-61
2021/10/21 03:06:55;;;;;;;43.07;21.90;;;1.60;99.90;;;;;;4174144;28;20270;-62
2021/10/21 03:08:57;;;;;;;42.63;21.17;;;1.60;99.90;;;;;;4172752;28;20274;-62
2021/10/21 03:10:58;;;;;;;43.23;22.60;;;1.60;99.90;;;;;;4173335;28;20285;-61
2021/10/21 03:13:00;;;;;;;46.67;23.73;;;1.60;99.90;;;;;;4172191;28;20270;-61
2021/10/21 03:15:02;;;;;;;43.50;22.50;;;1.60;99.90;;;;;;4173101;28;20254;-61
2021/10/21 03:17:03;;;;;;;42.10;21.83;;;1.50;99.90;;;;;;4139692;28;20276;-61
2021/10/21 03:19:05;;;;;;;36.47;21.37;;;1.40;99.90;;;;;;4156483;28;20278;-61
2021/10/21 03:21:07;;;;;;;39.23;20.80;;;1.30;99.90;;;;;;4157291;28;20279;-61
2021/10/21 03:23:08;;;;;;;43.00;21.43;;;1.20;99.90;;;;;;4172634;28;20339;-61
2021/10/21 03:25:11;;;;;;;40.93;22.40;;;1.20;99.90;;;;;;4178966;28;20327;-61
2021/10/21 03:27:12;;;;;;;73.30;24.33;;;1.10;99.90;;;;;;4189615;28;20261;-61
2021/10/21 03:29:13;;;;;;;45.60;23.40;;;1.10;99.90;;;;;;4190757;28;20265;-61
2021/10/21 03:31:14;;;;;;;61.93;23.67;;;1.10;99.90;;;;;;4188245;28;20265;-60
2021/10/21 03:33:15;;;;;;;71.73;23.83;;;1.00;99.90;;;;;;4172203;28;20274;-62
2021/10/21 03:35:16;;;;;;;81.67;22.97;;;0.90;99.90;;;;;;4178769;28;21325;-61
2021/10/21 03:37:17;;;;;;;44.27;22.63;;;0.90;99.90;;;;;;4173903;28;20603;-63
2021/10/21 03:39:18;;;;;;;47.67;21.73;;;0.80;99.90;;;;;;4172520;28;20292;-60
2021/10/21 03:41:20;;;;;;;45.37;23.70;;;0.80;99.90;;;;;;4173919;28;20266;-62
2021/10/21 03:43:23;;;;;;;45.10;24.57;;;0.80;99.90;;;;;;4172377;28;21271;-61
2021/10/21 03:45:24;;;;;;;64.67;25.70;;;0.80;99.90;;;;;;4174802;28;20286;-61
2021/10/21 03:47:25;;;;;;;75.07;24.77;;;0.70;99.90;;;;;;4173633;28;20274;-62
2021/10/21 03:49:26;;;;;;;127.60;27.20;;;0.70;99.90;;;;;;4172466;28;20270;-61
2021/10/21 03:51:27;;;;;;;93.13;25.77;;;0.60;99.90;;;;;;4173122;28;20274;-61
2021/10/21 03:53:28;;;;;;;79.53;26.80;;;0.50;99.90;;;;;;4171980;28;20807;-62
2021/10/21 03:55:29;;;;;;;97.47;27.27;;;0.60;99.90;;;;;;4172087;28;20347;-61
2021/10/21 03:57:31;;;;;;;80.73;25.60;;;0.60;99.90;;;;;;4173284;28;20286;-61
2021/10/21 03:59:32;;;;;;;94.87;28.07;;;0.60;99.90;;;;;;4173282;28;20336;-62
2021/10/21 04:01:33;;;;;;;82.23;27.10;;;0.60;99.90;;;;;;4171188;28;20279;-61
2021/10/21 04:03:34;;;;;;;80.63;25.67;;;0.60;99.90;;;;;;4172858;28;20781;-62
2021/10/21 04:05:35;;;;;;;122.63;26.83;;;0.60;99.90;;;;;;4172050;28;20599;-61
2021/10/21 04:07:36;;;;;;;85.83;26.43;;;0.60;99.90;;;;;;4172972;28;20262;-61
2021/10/21 04:09:38;;;;;;;60.80;25.80;;;0.60;99.90;;;;;;4172239;28;20281;-61
2021/10/21 04:11:39;;;;;;;54.53;26.13;;;0.70;99.90;;;;;;4172756;28;20284;-62
2021/10/21 04:13:40;;;;;;;69.17;29.17;;;0.70;99.90;;;;;;4172258;28;20308;-61
2021/10/21 04:15:41;;;;;;;66.87;29.30;;;0.70;99.90;;;;;;4172744;28;20351;-61
2021/10/21 04:17:42;;;;;;;83.60;29.43;;;0.70;99.90;;;;;;4172101;28;20348;-61
2021/10/21 04:19:43;;;;;;;76.13;28.77;;;0.70;99.90;;;;;;4172149;28;20297;-62
2021/10/21 04:21:44;;;;;;;110.20;32.13;;;0.70;99.90;;;;;;4171766;28;20298;-62
2021/10/21 04:23:46;;;;;;;109.33;33.37;;;0.70;99.90;;;;;;4171240;28;20347;-61
2021/10/21 04:25:47;;;;;;;241.90;37.40;;;0.70;99.90;;;;;;4173078;28;20262;-62
2021/10/21 04:27:48;;;;;;;111.57;36.07;;;0.80;99.90;;;;;;4156676;28;20290;-65
2021/10/21 04:29:49;;;;;;;88.60;33.03;;;0.70;99.90;;;;;;4170607;28;20685;-63
2021/10/21 04:31:50;;;;;;;97.40;34.97;;;0.70;99.90;;;;;;4170203;28;20692;-61
2021/10/21 04:33:51;;;;;;;90.47;35.30;;;0.70;99.90;;;;;;4171393;28;20849;-61
2021/10/21 04:35:52;;;;;;;135.70;35.73;;;0.80;99.90;;;;;;4170127;28;20262;-60
2021/10/21 04:37:54;;;;;;;97.60;35.07;;;0.80;99.90;;;;;;4170817;28;20306;-64
2021/10/21 04:39:55;;;;;;;123.67;37.67;;;0.80;99.90;;;;;;4167075;28;20274;-59
2021/10/21 04:41:56;;;;;;;98.57;34.10;;;0.80;99.90;;;;;;4151152;28;20278;-61
2021/10/21 04:43:57;;;;;;;91.60;41.53;;;0.80;99.90;;;;;;4172001;28;20317;-60
2021/10/21 04:45:58;;;;;;;103.83;34.87;;;0.80;99.90;;;;;;4172685;28;20329;-56
2021/10/21 04:47:59;;;;;;;95.97;35.07;;;0.80;99.90;;;;;;4172048;28;20268;-63
2021/10/21 04:50:00;;;;;;;110.13;37.87;;;0.80;99.90;;;;;;4172351;28;20662;-57
2021/10/21 04:52:02;;;;;;;94.23;41.50;;;0.90;99.90;;;;;;4175336;28;20283;-61
2021/10/21 04:54:03;;;;;;;110.93;44.97;;;0.90;99.90;;;;;;4172635;28;20274;-61
2021/10/21 04:56:05;;;;;;;87.33;42.00;;;0.90;99.90;;;;;;4174749;28;20348;-61
2021/10/21 04:58:06;;;;;;;93.53;42.70;;;1.00;99.90;;;;;;4174948;28;20285;-61
2021/10/21 05:00:08;;;;;;;91.87;41.20;;;1.00;99.90;;;;;;4175721;28;20344;-64
2021/10/21 05:02:09;;;;;;;80.67;39.37;;;1.10;99.90;;;;;;4174457;28;20653;-60
2021/10/21 05:04:10;;;;;;;88.47;38.07;;;1.10;99.90;;;;;;4175733;28;20375;-61
2021/10/21 05:06:11;;;;;;;80.37;36.90;;;1.20;99.90;;;;;;4174174;28;20339;-60
2021/10/21 05:08:12;;;;;;;78.10;36.50;;;1.30;99.90;;;;;;4174463;28;20278;-61
2021/10/21 05:10:14;;;;;;;75.10;34.20;;;1.30;99.90;;;;;;4174209;28;20258;-61
2021/10/21 05:12:15;;;;;;;72.57;35.40;;;1.40;99.90;;;;;;4175525;28;20266;-61
2021/10/21 05:14:17;;;;;;;67.43;34.27;;;1.40;99.90;;;;;;4174775;28;20270;-61
2021/10/21 05:16:18;;;;;;;69.07;32.87;;;1.50;99.90;;;;;;4175151;28;20332;-62
2021/10/21 05:18:19;;;;;;;68.73;31.47;;;1.60;99.90;;;;;;4175236;28;20265;-61
2021/10/21 05:20:20;;;;;;;63.20;30.57;;;1.70;99.90;;;;;;4172645;28;20270;-60
2021/10/21 05:22:21;;;;;;;69.60;33.83;;;1.80;99.90;;;;;;4174393;28;20274;-61
2021/10/21 05:24:23;;;;;;;84.13;37.17;;;1.90;99.90;;;;;;4159730;28;20353;-62
2021/10/21 05:26:24;;;;;;;73.73;33.70;;;2.00;99.90;;;;;;4167685;28;20270;-63
2021/10/21 05:28:25;;;;;;;65.53;30.67;;;2.00;99.90;;;;;;4172170;28;20274;-62
2021/10/21 05:30:26;;;;;;;65.33;30.67;;;2.00;99.90;;;;;;4170639;28;20367;-61
2021/10/21 05:32:27;;;;;;;71.53;32.67;;;1.90;99.90;;;;;;4159529;28;20364;-59
2021/10/21 05:34:28;;;;;;;64.60;28.43;;;2.00;99.90;;;;;;4170051;28;20262;-62
2021/10/21 05:36:29;;;;;;;54.17;28.40;;;1.90;99.90;;;;;;4172215;28;20681;-63
2021/10/21 05:38:30;;;;;;;65.63;27.97;;;1.90;99.90;;;;;;4174556;28;20292;-62
2021/10/21 05:40:32;;;;;;;65.23;30.30;;;1.90;99.90;;;;;;4172656;28;20673;-61
2021/10/21 05:42:33;;;;;;;66.43;28.93;;;1.80;99.90;;;;;;4154534;28;20405;-58
2021/10/21 05:44:34;;;;;;;60.93;29.80;;;1.90;99.90;;;;;;4172114;28;20859;-61
2021/10/21 05:46:35;;;;;;;93.77;31.43;;;1.90;99.90;;;;;;4172288;28;20286;-62
2021/10/21 05:48:36;;;;;;;92.80;32.67;;;2.10;99.90;;;;;;4175580;28;20683;-60
2021/10/21 05:50:37;;;;;;;117.47;37.03;;;2.20;99.90;;;;;;4173902;28;20323;-59
2021/10/21 05:52:39;;;;;;;98.63;36.43;;;2.30;99.90;;;;;;4172535;28;20332;-62
2021/10/21 05:54:40;;;;;;;117.37;40.00;;;2.40;99.90;;;;;;4171730;28;20377;-62
2021/10/21 05:56:44;;;;;;;126.70;44.43;;;2.40;99.90;;;;;;4172923;28;20351;-61
2021/10/21 05:58:45;;;;;;;194.67;52.93;;;2.50;99.90;;;;;;4167629;28;20321;-64
2021/10/21 06:00:46;;;;;;;195.70;55.83;;;2.40;99.90;;;;;;4186390;28;20841;-61
2021/10/21 06:02:47;;;;;;;263.87;55.10;;;2.40;99.90;;;;;;4188776;28;20265;-61
2021/10/21 06:04:48;;;;;;;193.70;51.17;;;2.40;99.90;;;;;;4190947;28;20272;-62
2021/10/21 06:06:49;;;;;;;149.57;51.63;;;2.40;99.90;;;;;;4174908;28;20278;-62
2021/10/21 06:08:50;;;;;;;129.63;46.60;;;2.40;99.90;;;;;;4174924;28;20663;-63
2021/10/21 06:10:51;;;;;;;186.57;54.70;;;2.50;99.90;;;;;;4172462;28;20332;-64
2021/10/21 06:12:52;;;;;;;201.77;55.23;;;2.60;99.90;;;;;;4173508;28;20681;-61
2021/10/21 06:14:54;;;;;;;301.80;59.10;;;2.60;99.90;;;;;;4157336;28;20337;-62
2021/10/21 06:16:55;;;;;;;190.50;56.77;;;2.70;99.90;;;;;;4164681;28;20289;-60
2021/10/21 06:18:56;;;;;;;198.60;62.40;;;2.70;99.90;;;;;;4155815;28;20341;-62
2021/10/21 06:20:59;;;;;;;164.50;54.37;;;2.80;99.90;;;;;;4173127;28;20266;-63
2021/10/21 06:23:01;;;;;;;191.37;51.07;;;2.90;99.90;;;;;;4174428;28;20270;-61
2021/10/21 06:25:06;;;;;;;174.77;51.83;;;2.90;99.90;;;;;;4173441;28;20347;-57
2021/10/21 06:27:07;;;;;;;137.37;46.33;;;3.00;99.90;;;;;;4173858;28;20274;-59
2021/10/21 06:29:08;;;;;;;154.37;42.27;;;3.10;99.90;;;;;;4174080;28;20266;-60
2021/10/21 06:31:11;;;;;;;195.53;41.47;;;3.10;99.90;;;;;;4174950;28;20320;-61
2021/10/21 06:33:13;;;;;;;213.27;35.77;;;3.20;99.90;;;;;;4170512;28;20311;-60
2021/10/21 06:35:15;;;;;;;276.50;39.70;;;3.20;99.90;;;;;;4174966;28;20844;-64
2021/10/21 06:37:16;;;;;;;192.87;30.60;;;3.20;99.90;;;;;;4181025;28;20327;-58
2021/10/21 06:39:17;;;;;;;219.70;34.87;;;3.20;99.90;;;;;;4188379;28;20278;-56
2021/10/21 06:41:18;;;;;;;233.87;31.90;;;3.20;99.90;;;;;;4173093;28;20304;-60
2021/10/21 06:43:19;;;;;;;115.97;31.10;;;3.20;99.90;;;;;;4171365;28;20294;-59
2021/10/21 06:45:22;;;;;;;161.97;30.03;;;3.20;99.90;;;;;;4189500;28;20269;-61
2021/10/21 06:47:23;;;;;;;220.07;34.30;;;3.20;99.90;;;;;;4190503;28;20300;-60
2021/10/21 06:49:26;;;;;;;157.50;32.97;;;3.20;99.90;;;;;;4189756;28;20262;-60
2021/10/21 06:51:27;;;;;;;346.87;39.83;;;3.10;99.90;;;;;;4188769;28;20281;-61
2021/10/21 06:53:29;;;;;;;259.17;35.77;;;3.00;99.90;;;;;;4172565;28;20282;-61
2021/10/21 06:55:30;;;;;;;206.27;34.27;;;3.00;99.90;;;;;;4173020;28;20278;-60
2021/10/21 06:57:32;;;;;;;205.70;33.30;;;3.00;99.90;;;;;;4172744;28;20399;-59
2021/10/21 06:59:33;;;;;;;116.13;31.60;;;3.00;99.90;;;;;;4171933;28;20645;-61
2021/10/21 07:01:35;;;;;;;106.80;31.23;;;3.00;99.90;;;;;;4173654;28;20316;-59
2021/10/21 07:03:36;;;;;;;225.13;33.83;;;3.10;99.90;;;;;;4172820;28;20286;-60
2021/10/21 07:05:44;;;;;;;129.73;34.63;;;3.10;99.90;;;;;;4173790;28;20258;-61
2021/10/21 07:07:46;;;;;;;220.83;38.13;;;3.10;99.90;;;;;;4173221;28;20285;-62
2021/10/21 07:09:47;;;;;;;154.50;34.80;;;3.20;99.90;;;;;;4172361;28;20278;-61
2021/10/21 07:11:48;;;;;;;114.90;32.77;;;3.10;99.90;;;;;;4172939;28;20669;-60
2021/10/21 07:13:49;;;;;;;202.40;36.93;;;3.10;99.90;;;;;;4173950;28;20270;-60
2021/10/21 07:15:50;;;;;;;200.53;37.60;;;3.20;99.90;;;;;;4172667;28;20738;-60
2021/10/21 07:17:51;;;;;;;146.67;33.33;;;3.20;99.90;;;;;;4173986;28;20324;-60
2021/10/21 07:19:53;;;;;;;169.10;35.20;;;3.10;99.90;;;;;;4171167;28;20348;-61
2021/10/21 07:21:54;;;;;;;127.40;32.90;;;3.10;99.90;;;;;;4172574;28;20349;-60
2021/10/21 07:23:55;;;;;;;135.57;34.63;;;3.20;99.90;;;;;;4172657;28;20290;-60
2021/10/21 07:25:56;;;;;;;160.47;36.17;;;3.20;99.90;;;;;;4172348;28;20911;-62
2021/10/21 07:27:58;;;;;;;172.47;37.57;;;3.20;99.90;;;;;;4171763;28;20297;-60
2021/10/21 07:29:59;;;;;;;125.07;33.97;;;3.30;99.90;;;;;;4171407;28;20696;-64
2021/10/21 07:32:02;;;;;;;118.57;35.37;;;3.30;99.90;;;;;;4172470;28;20324;-62
2021/10/21 07:34:04;;;;;;;105.53;32.40;;;3.30;99.90;;;;;;4172467;28;20274;-62
2021/10/21 07:36:05;;;;;;;129.67;35.33;;;3.30;99.90;;;;;;4173565;28;20657;-60
2021/10/21 07:38:07;;;;;;;142.47;40.13;;;3.30;99.90;;;;;;4172609;28;20274;-62
2021/10/21 07:40:10;;;;;;;160.33;38.87;;;3.40;99.90;;;;;;4173625;28;20328;-60
2021/10/21 07:42:11;;;;;;;128.57;36.43;;;3.50;99.90;;;;;;4171618;28;20274;-62
2021/10/21 07:44:12;;;;;;;110.10;35.50;;;3.50;99.90;;;;;;4173025;28;20340;-59
2021/10/21 07:46:14;;;;;;;121.37;33.80;;;3.50;99.90;;;;;;4172243;28;20270;-66
2021/10/21 07:48:15;;;;;;;79.87;33.77;;;3.60;99.90;;;;;;4172555;28;20278;-61
2021/10/21 07:50:18;;;;;;;79.17;34.00;;;3.70;99.90;;;;;;4172317;28;20363;-61
2021/10/21 07:52:22;;;;;;;135.00;33.73;;;3.80;99.90;;;;;;4173453;28;20328;-61
2021/10/21 07:54:26;;;;;;;98.03;32.23;;;3.90;99.90;;;;;;4172315;28;20246;-60
2021/10/21 07:56:27;;;;;;;118.83;31.30;;;3.90;99.90;;;;;;4172613;28;21060;-60
2021/10/21 07:58:28;;;;;;;132.53;29.30;;;3.90;99.90;;;;;;4172790;28;20315;-63
2021/10/21 08:00:30;;;;;;;112.73;31.80;;;3.90;99.90;;;;;;4172620;28;20958;-63
2021/10/21 08:02:31;;;;;;;108.83;31.37;;;3.90;99.90;;;;;;4174207;28;20266;-62
2021/10/21 08:04:33;;;;;;;120.60;29.40;;;4.00;99.90;;;;;;4181892;28;20282;-63
2021/10/21 08:06:34;;;;;;;115.73;29.80;;;4.00;99.90;;;;;;4173038;28;20270;-63
2021/10/21 08:08:35;;;;;;;96.63;31.60;;;4.00;99.90;;;;;;4172327;28;20319;-62
2021/10/21 08:10:37;;;;;;;150.83;30.40;;;3.90;99.90;;;;;;4172941;28;20274;-62
2021/10/21 08:12:39;;;;;;;98.93;28.30;;;3.90;99.90;;;;;;4171046;28;20692;-61
2021/10/21 08:14:40;;;;;;;105.97;28.93;;;4.00;99.90;;;;;;4173499;28;20262;-62
2021/10/21 08:16:41;;;;;;;89.27;26.63;;;4.00;99.90;;;;;;4171336;28;20689;-62
2021/10/21 08:18:42;;;;;;;70.00;27.23;;;4.00;99.90;;;;;;4172692;28;20286;-62
2021/10/21 08:20:44;;;;;;;98.97;27.90;;;4.00;99.90;;;;;;4170847;28;20282;-62
2021/10/21 08:22:46;;;;;;;114.30;31.00;;;4.00;99.90;;;;;;4173006;28;20642;-62
2021/10/21 08:24:47;;;;;;;143.10;33.23;;;4.10;99.90;;;;;;4170953;28;20717;-62
2021/10/21 08:26:55;;;;;;;100.80;26.73;;;4.10;99.90;;;;;;4175494;28;20274;-63
2021/10/21 08:28:58;;;;;;;84.80;29.07;;;4.10;99.90;;;;;;4175702;28;20402;-64
2021/10/21 08:30:59;;;;;;;70.67;28.60;;;4.10;99.90;;;;;;4175838;28;20259;-61
2021/10/21 08:33:00;;;;;;;90.37;30.43;;;4.10;99.90;;;;;;4175139;28;20270;-62
2021/10/21 08:35:02;;;;;;;108.57;31.17;;;4.20;99.90;;;;;;4174797;28;20324;-62
2021/10/21 08:37:04;;;;;;;99.47;31.00;;;4.20;99.90;;;;;;4175822;28;20355;-63
2021/10/21 08:39:07;;;;;;;82.90;32.17;;;4.20;99.90;;;;;;4173730;28;20278;-62
2021/10/21 08:41:11;;;;;;;77.50;33.37;;;4.30;99.90;;;;;;4175744;28;20347;-62
2021/10/21 08:43:12;;;;;;;77.77;30.00;;;4.40;99.90;;;;;;4174934;28;20316;-62
2021/10/21 08:45:14;;;;;;;84.87;32.00;;;4.40;99.90;;;;;;4176093;28;20286;-62
2021/10/21 08:47:18;;;;;;;71.47;35.03;;;4.40;99.90;;;;;;4175327;28;20266;-62
2021/10/21 08:49:21;;;;;;;92.97;36.87;;;4.50;99.90;;;;;;4176733;28;20323;-61
2021/10/21 08:51:23;;;;;;;108.00;43.33;;;4.60;99.90;;;;;;4174837;28;20692;-63
2021/10/21 08:53:25;;;;;;;115.10;45.80;;;4.60;99.90;;;;;;4176264;28;20274;-61
2021/10/21 08:55:27;;;;;;;112.23;46.70;;;4.80;99.90;;;;;;4174390;28;20324;-61
2021/10/21 08:57:28;;;;;;;121.77;48.30;;;4.80;99.90;;;;;;4174652;28;20278;-65
2021/10/21 08:59:30;;;;;;;125.63;51.60;;;5.00;99.90;;;;;;4172711;28;20282;-62
2021/10/21 09:01:39;;;;;;;121.33;48.53;;;5.10;99.90;;;;;;4158460;28;20295;-61
2021/10/21 09:06:20;;;;;;;127.67;45.33;;;5.20;99.90;;;;;;4166666;28;20274;-63
2021/10/21 09:08:22;;;;;;;106.50;45.60;;;5.10;99.90;;;;;;4174512;28;20688;-62
2021/10/21 09:10:24;;;;;;;97.00;43.10;;;5.10;99.90;;;;;;4175187;28;20335;-62
2021/10/21 09:12:25;;;;;;;96.03;42.73;;;5.20;99.90;;;;;;4173810;28;20270;-64
2021/10/21 09:14:34;;;;;;;90.73;44.77;;;5.30;99.90;;;;;;4163447;28;20266;-63
2021/10/21 09:16:36;;;;;;;96.50;43.43;;;5.40;99.90;;;;;;4173592;28;20308;-62
2021/10/21 09:18:43;;;;;;;83.20;39.83;;;5.40;99.90;;;;;;4174839;28;20316;-62
2021/10/21 09:20:47;;;;;;;71.97;36.43;;;5.50;99.90;;;;;;4172361;28;20874;-61
2021/10/21 09:22:57;;;;;;;67.53;36.30;;;5.50;99.90;;;;;;4160888;28;20286;-63
2021/10/21 09:25:09;;;;;;;77.50;36.30;;;5.50;99.90;;;;;;4158607;28;20302;-64
2021/10/21 09:27:18;;;;;;;71.70;36.17;;;5.60;99.90;;;;;;4173817;28;20323;-62
2021/10/21 09:29:24;;;;;;;73.63;35.95;;;5.70;99.90;;;;;;4159256;28;20576;-64
2021/10/21 09:31:29;;;;;;;80.93;40.77;;;5.90;99.90;;;;;;4157993;28;20030;-63
2021/10/21 09:33:51;;;;;;;70.97;36.43;;;6.10;99.90;;;;;;4160664;28;20729;-63
2021/10/21 09:36:00;;;;;;;67.77;33.97;;;6.30;99.90;;;;;;4169622;28;20309;-63
2021/10/21 09:38:01;;;;;;;60.87;31.07;;;6.40;99.90;;;;;;4182880;28;20324;-63
2021/10/21 09:40:07;;;;;;;63.13;33.03;;;6.40;99.90;;;;;;4174298;28;20082;-62
2021/10/21 09:42:10;;;;;;;62.03;32.23;;;6.50;99.90;;;;;;4174910;28;20059;-62
2021/10/21 09:44:24;;;;;;;59.67;32.43;;;6.50;99.90;;;;;;4173771;28;20044;-63
2021/10/21 09:46:41;;;;;;;72.50;36.40;;;6.70;99.90;;;;;;4174817;28;20343;-63
2021/10/21 09:48:43;;;;;;;65.63;36.27;;;6.80;99.90;;;;;;4173633;28;20350;-62
2021/10/21 09:50:46;;;;;;;63.27;33.90;;;6.90;99.90;;;;;;4174488;28;20090;-62
2021/10/21 09:53:05;;;;;;;71.17;33.83;;;7.00;99.90;;;;;;4172763;28;20090;-64
2021/10/21 09:55:12;;;;;;;56.13;30.63;;;7.20;99.90;;;;;;4174447;28;20050;-63
2021/10/21 09:57:17;;;;;;;60.47;32.20;;;7.30;99.90;;;;;;4174185;28;20083;-63
2021/10/21 09:59:24;;;;;;;56.07;31.43;;;7.40;99.90;;;;;;4173941;28;20033;-62
2021/10/21 10:01:36;;;;;;;56.57;32.50;;;7.50;99.90;;;;;;4173056;28;20041;-64
2021/10/21 10:03:40;;;;;;;60.53;32.50;;;7.60;99.90;;;;;;4174359;28;20040;-63
2021/10/21 10:05:52;;;;;;;58.10;33.67;;;7.90;99.90;;;;;;4173598;28;20086;-66
2021/10/21 10:07:53;;;;;;;55.87;32.27;;;8.10;99.90;;;;;;4174342;28;20379;-65
2021/10/21 10:09:59;;;;;;;58.17;31.13;;;8.30;99.90;;;;;;4173104;28;20107;-63
2021/10/21 10:12:05;;;;;;;58.33;32.93;;;8.50;99.90;;;;;;4174753;28;20901;-62
2021/10/21 10:14:07;;;;;;;50.97;31.50;;;8.60;99.90;;;;;;4173844;28;20043;-62
2021/10/21 10:16:08;;;;;;;50.70;28.50;;;8.70;99.90;;;;;;4174792;28;20025;-63
2021/10/21 10:18:18;;;;;;;49.67;29.27;;;8.80;99.90;;;;;;4172174;28;20130;-64
2021/10/21 10:20:26;;;;;;;48.47;27.03;;;8.90;99.90;;;;;;4156365;28;20039;-64
2021/10/21 10:22:34;;;;;;;48.57;27.73;;;9.00;99.90;;;;;;4173056;28;20029;-63
2021/10/21 10:24:38;;;;;;;51.10;28.57;;;9.20;99.90;;;;;;4173149;28;20052;-63
2021/10/21 10:26:44;;;;;;;52.97;28.67;;;9.30;99.90;;;;;;4171528;28;20527;-62